createdAt,value
2024-05-09T00:00:04.997Z,12.6
2024-05-09T00:20:04.979Z,12.5
2024-05-09T00:40:04.931Z,12.0
2024-05-09T01:00:04.918Z,12.4
2024-05-09T01:20:04.908Z,12.4
2024-05-09T01:40:04.890Z,12.2
2024-05-09T02:00:04.866Z,12.1
2024-05-09T02:20:04.848Z,11.8
2024-05-09T02:40:04.833Z,11.5
2024-05-09T03:00:04.796Z,11.2
2024-05-09T03:20:04.789Z,11.1
2024-05-09T03:40:04.778Z,10.7
2024-05-09T04:00:04.780Z,10.5
2024-05-09T04:20:04.749Z,10.4
2024-05-09T04:40:04.769Z,10.4
2024-05-09T05:00:04.722Z,10.6
2024-05-09T05:20:04.679Z,10.9
2024-05-09T05:40:04.673Z,11.2
2024-05-09T06:00:04.640Z,11.4
2024-05-09T06:20:04.647Z,11.9
2024-05-09T06:40:04.609Z,12.1
2024-05-09T07:00:04.698Z,12.6
2024-05-09T07:20:04.599Z,13.3
2024-05-09T07:40:05.190Z,14.2
2024-05-09T08:00:04.532Z,15.0
2024-05-09T08:20:04.508Z,15.8
2024-05-09T08:40:04.513Z,16.1
2024-05-09T09:00:04.576Z,16.5
2024-05-09T09:20:04.440Z,17.5
2024-05-09T09:40:04.619Z,18.1
2024-05-09T10:00:04.398Z,18.2
2024-05-09T10:20:04.395Z,19.0
2024-05-09T10:40:04.488Z,19.5
2024-05-09T11:00:04.337Z,20.2
2024-05-09T11:20:04.289Z,20.0
2024-05-09T11:40:04.290Z,20.7
2024-05-09T12:00:04.261Z,21.2
2024-05-09T12:20:04.247Z,21.6
2024-05-09T12:40:04.204Z,21.5
2024-05-09T13:00:04.168Z,22.2
2024-05-09T13:20:04.139Z,22.4
2024-05-09T13:40:04.107Z,22.8
2024-05-09T14:00:04.087Z,23.1
2024-05-09T14:20:04.097Z,23.2
2024-05-09T14:40:04.030Z,22.5
2024-05-09T15:00:04.013Z,22.8
2024-05-09T15:20:04.001Z,22.1
2024-05-09T15:40:04.058Z,22.4
2024-05-09T16:00:03.926Z,22.5
2024-05-09T16:20:03.951Z,22.1
2024-05-09T16:40:03.872Z,21.9
2024-05-09T17:00:03.970Z,21.7
2024-05-09T17:20:04.024Z,21.5
2024-05-09T17:40:03.883Z,20.8
2024-05-09T18:00:03.765Z,20.0
2024-05-09T18:20:03.754Z,19.6
2024-05-09T18:40:03.717Z,18.6
2024-05-09T19:00:03.699Z,18.3
2024-05-09T19:20:03.684Z,17.5
2024-05-09T19:40:03.647Z,17.3
2024-05-09T20:00:03.774Z,16.9
2024-05-09T20:20:03.603Z,15.9
2024-05-09T20:40:03.591Z,15.8
2024-05-09T21:00:03.580Z,15.8
2024-05-09T21:20:03.737Z,15.3
2024-05-09T21:40:03.509Z,15.1
2024-05-09T22:00:03.535Z,14.5
2024-05-09T22:20:03.508Z,14.3
2024-05-09T22:40:03.458Z,14.2
2024-05-09T23:00:03.494Z,14.0
2024-05-09T23:20:03.417Z,13.9
2024-05-09T23:40:03.388Z,13.6
